Time;durP1;ratioP1;P1;durP2;ratioP2;P2;SDS_P1;SDS_P2;PMS_P1;PMS_P2;Temp;Humidity;BMP_temperature;BMP_pressure;BME280_temperature;BME280_humidity;BME280_pressure;Samples;Min_cycle;Max_cycle;Signal;HPM_P1;HPM_P2
2022/04/18 00:00:26;;;;;;;13.63;7.57;;;;;;;5.97;49.74;102278.69;2079239;28;44086;-70
2022/04/18 00:01:27;;;;;;;11.95;7.47;;;;;;;5.88;49.68;102291.78;2079813;28;45849;-71
2022/04/18 00:02:29;;;;;;;11.52;6.68;;;;;;;5.78;50.44;102281.84;2079669;28;40679;-70
2022/04/18 00:03:31;;;;;;;13.15;7.88;;;;;;;5.71;51.05;102281.75;2078822;28;45470;-70
2022/04/18 00:04:33;;;;;;;11.15;6.93;;;;;;;5.65;50.98;102286.97;2071009;28;42313;-71
2022/04/18 00:05:35;;;;;;;12.30;7.25;;;;;;;5.61;52.02;102277.13;2079141;28;45527;-71
2022/04/18 00:06:37;;;;;;;12.50;7.38;;;;;;;5.58;51.69;102282.41;2078192;28;45144;-70
2022/04/18 00:07:38;;;;;;;13.40;7.32;;;;;;;5.53;51.32;102284.94;2080011;28;20575;-70
2022/04/18 00:08:42;;;;;;;15.13;7.65;;;;;;;5.51;52.20;102280.50;2079652;28;20946;-70
2022/04/18 00:09:44;;;;;;;14.65;8.38;;;;;;;5.56;52.77;102284.09;2078937;28;44766;-71
2022/04/18 00:10:46;;;;;;;12.35;7.80;;;;;;;5.56;52.39;102284.09;2070051;28;45135;-70
2022/04/18 00:11:47;;;;;;;15.30;8.50;;;;;;;5.67;52.63;102281.66;2070740;28;44772;-71
2022/04/18 00:12:51;;;;;;;14.43;7.68;;;;;;;5.65;52.31;102276.34;2079224;28;42018;-71
2022/04/18 00:13:53;;;;;;;12.35;7.78;;;;;;;5.77;52.04;102277.41;2079050;28;38332;-70
2022/04/18 00:14:57;;;;;;;13.23;8.43;;;;;;;5.82;51.81;102278.41;2069982;28;43410;-71
2022/04/18 00:15:58;;;;;;;14.15;7.97;;;;;;;5.88;52.18;102281.16;2064178;28;20034;-71
2022/04/18 00:17:00;;;;;;;14.98;8.70;;;;;;;5.91;51.21;102271.47;2078379;28;45237;-70
2022/04/18 00:18:02;;;;;;;14.05;8.15;;;;;;;6.03;51.55;102275.25;2079149;28;43928;-70
2022/04/18 00:19:04;;;;;;;16.73;8.43;;;;;;;6.03;51.76;102277.91;2079667;28;40419;-71
2022/04/18 00:20:06;;;;;;;15.32;8.55;;;;;;;6.02;51.30;102277.03;2079452;28;43429;-70
2022/04/18 00:21:08;;;;;;;14.60;7.68;;;;;;;5.98;51.41;102272.53;2079310;28;42942;-70
2022/04/18 00:22:10;;;;;;;15.18;9.32;;;;;;;6.09;51.29;102276.25;2078890;28;46647;-72
2022/04/18 00:23:11;;;;;;;14.98;8.80;;;;;;;6.17;52.17;102272.84;2079032;28;43515;-71
2022/04/18 00:24:14;;;;;;;13.73;8.27;;;;;;;6.14;51.36;102268.38;2079206;28;45594;-70
2022/04/18 00:25:18;;;;;;;14.43;8.48;;;;;;;6.19;51.42;102271.09;2070273;28;44861;-70
2022/04/18 00:26:19;;;;;;;14.60;8.32;;;;;;;6.16;51.90;102271.94;2070189;28;45630;-71
2022/04/18 00:27:21;;;;;;;13.40;8.07;;;;;;;6.16;51.58;102271.06;2079262;28;20055;-71
2022/04/18 00:28:23;;;;;;;13.82;7.38;;;;;;;6.13;51.18;102271.00;2078674;28;42343;-70
2022/04/18 00:29:24;;;;;;;14.80;8.65;;;;;;;6.08;51.63;102269.16;2087584;28;20037;-70
2022/04/18 00:30:26;;;;;;;13.73;7.57;;;;;;;6.03;51.89;102268.19;2087042;28;39552;-70
2022/04/18 00:31:28;;;;;;;14.60;7.80;;;;;;;5.98;52.56;102261.91;2079068;28;42717;-71
2022/04/18 00:32:35;;;;;;;13.13;7.50;;;;;;;5.92;51.98;102267.06;2080441;28;20054;-70
2022/04/18 00:33:36;;;;;;;11.60;6.57;;;;;;;5.87;53.13;102264.31;2079264;28;45911;-70
2022/04/18 00:34:38;;;;;;;11.57;7.25;;;;;;;5.82;52.34;102267.78;2080539;28;20041;-71
2022/04/18 00:35:40;;;;;;;12.88;7.97;;;;;;;5.77;52.50;102270.34;2078500;28;45228;-71
2022/04/18 00:36:41;;;;;;;14.30;7.43;;;;;;;5.76;53.99;102265.91;2078936;28;42539;-71
2022/04/18 00:37:43;;;;;;;14.75;8.18;;;;;;;5.88;52.51;102266.09;2079410;28;25724;-71
2022/04/18 00:38:45;;;;;;;15.68;7.85;;;;;;;5.85;53.56;102266.06;2078902;28;44429;-72
2022/04/18 00:39:46;;;;;;;13.23;7.07;;;;;;;5.81;52.46;102268.63;2079226;28;28588;-70
2022/04/18 00:40:49;;;;;;;11.85;7.07;;;;;;;5.82;53.11;102268.66;2079996;28;24761;-70
2022/04/18 00:41:53;;;;;;;13.00;7.57;;;;;;;5.82;52.43;102257.16;2079118;28;44614;-70
2022/04/18 00:43:03;;;;;;;11.63;7.22;;;;;;;5.89;53.21;102265.25;2079234;28;44475;-71
2022/04/18 00:44:08;;;;;;;11.60;7.07;;;;;;;5.87;53.03;102260.78;2077941;28;44801;-71
2022/04/18 00:45:11;;;;;;;11.85;7.25;;;;;;;6.01;51.89;102266.34;2079710;28;20073;-71
2022/04/18 00:46:16;;;;;;;11.32;6.88;;;;;;;6.02;52.87;102261.06;2078825;28;38690;-73
2022/04/18 00:47:18;;;;;;;11.10;6.97;;;;;;;5.92;52.31;102262.66;2080362;28;20034;-72
2022/04/18 00:48:23;;;;;;;11.80;6.95;;;;;;;5.89;52.69;102261.69;2078960;28;20045;-72
2022/04/18 00:49:28;;;;;;;12.90;7.53;;;;;;;5.91;53.27;102259.97;2072147;28;20343;-72
2022/04/18 00:50:33;;;;;;;11.23;7.05;;;;;;;5.90;52.89;102263.47;2079657;28;20026;-71
2022/04/18 00:51:35;;;;;;;13.07;7.50;;;;;;;5.83;53.28;102258.91;2078754;28;37754;-71
2022/04/18 00:52:38;;;;;;;11.55;6.68;;;;;;;5.81;53.41;102268.63;2078384;28;44464;-70
2022/04/18 00:53:42;;;;;;;12.25;6.88;;;;;;;5.76;53.45;102260.59;2078703;28;44202;-70
2022/04/18 00:54:47;;;;;;;10.85;6.90;;;;;;;5.71;53.48;102256.94;2078244;28;46286;-72
2022/04/18 00:55:53;;;;;;;12.10;6.95;;;;;;;5.65;54.00;102263.06;2070933;28;20198;-70
2022/04/18 00:56:56;;;;;;;20.25;7.05;;;;;;;5.66;54.29;102259.50;2072348;28;20043;-71
2022/04/18 00:58:00;;;;;;;12.55;6.93;;;;;;;5.63;54.46;102259.44;2071115;28;20815;-72
2022/04/18 00:59:03;;;;;;;11.18;6.68;;;;;;;5.59;53.55;102262.91;2063323;28;38366;-71
2022/04/18 01:00:06;;;;;;;14.13;7.47;;;;;;;5.64;53.98;102255.94;2063678;28;20879;-71
2022/04/18 01:01:09;;;;;;;13.63;7.82;;;;;;;5.57;53.54;102254.03;2070948;28;32049;-71
2022/04/18 01:02:13;;;;;;;15.50;7.00;;;;;;;5.59;54.92;102251.41;2087523;28;20121;-71
2022/04/18 01:03:15;;;;;;;11.80;7.03;;;;;;;5.58;53.81;102245.22;2087099;28;20049;-71
2022/04/18 01:04:18;;;;;;;11.07;7.05;;;;;;;5.55;54.83;102250.44;2079829;28;20045;-71
2022/04/18 01:05:20;;;;;;;11.73;7.43;;;;;;;5.51;53.52;102243.31;2078395;28;48022;-71
2022/04/18 01:06:22;;;;;;;13.88;7.20;;;;;;;5.51;54.64;102245.97;2079338;28;23073;-71
2022/04/18 01:07:25;;;;;;;15.85;7.63;;;;;;;5.46;54.53;102247.63;2087458;28;20037;-71
2022/04/18 01:08:29;;;;;;;13.80;7.45;;;;;;;5.44;54.01;102244.06;2070588;28;37598;-70
2022/04/18 01:09:32;;;;;;;11.80;7.20;;;;;;;5.43;54.97;102245.78;2072170;28;20165;-71
2022/04/18 01:10:37;;;;;;;14.10;7.55;;;;;;;5.46;54.80;102250.28;2074985;28;44929;-71
2022/04/18 01:11:39;;;;;;;14.57;7.53;;;;;;;5.47;54.84;102242.34;2075658;28;20042;-72
2022/04/18 01:12:52;;;;;;;11.60;7.40;;;;;;;5.46;54.32;102237.00;2076887;28;20970;-71
2022/04/18 01:14:06;;;;;;;15.52;7.43;;;;;;;5.54;54.62;102238.94;2074586;28;20034;-72
2022/04/18 01:15:23;;;;;;;13.50;7.13;;;;;;;5.50;53.93;102236.19;2073362;28;20186;-72
2022/04/18 01:16:43;;;;;;;13.32;7.57;;;;;;;5.48;54.67;102245.88;2083737;28;20050;-72
2022/04/18 01:18:11;;;;;;;13.38;7.45;;;;;;;5.54;54.34;102238.03;2052623;28;20318;-71
2022/04/18 01:19:31;;;;;;;13.85;7.55;;;;;;;5.46;54.07;102229.03;2083662;28;20042;-72
2022/04/18 01:20:45;;;;;;;14.20;7.53;;;;;;;5.51;55.43;102232.69;2084660;28;20213;-71
2022/04/18 01:21:58;;;;;;;14.43;8.10;;;;;;;5.58;55.05;102225.69;2073514;28;20038;-71
2022/04/18 01:23:09;;;;;;;;;;;;;;;5.58;55.24;102218.63;2074346;28;20899;-72
2022/04/18 01:29:56;;;;;;;13.55;7.63;;;;;;;5.38;54.35;102220.00;2078749;28;20046;-72
2022/04/18 01:30:59;;;;;;;16.83;8.77;;;;;;;5.33;55.55;102222.59;2078886;28;20081;-72
2022/04/18 01:32:02;;;;;;;14.38;8.05;;;;;;;5.33;56.17;102225.25;2078674;28;20046;-72
2022/04/18 01:33:05;;;;;;;15.27;8.30;;;;;;;5.32;55.52;102220.78;2069931;28;46325;-72
2022/04/18 01:34:08;;;;;;;17.10;8.90;;;;;;;5.28;56.64;102225.16;2079164;28;20859;-71
2022/04/18 01:35:10;;;;;;;15.38;8.25;;;;;;;5.29;55.72;102226.03;2078616;28;43641;-72
2022/04/18 01:36:12;;;;;;;15.20;8.13;;;;;;;5.33;55.62;102230.56;2086818;28;20056;-71
2022/04/18 01:37:16;;;;;;;12.55;7.85;;;;;;;5.31;56.51;102227.88;2070990;28;20050;-71
2022/04/18 01:38:19;;;;;;;16.77;9.43;;;;;;;5.31;56.79;102221.66;2080707;28;20046;-71
2022/04/18 01:39:20;;;;;;;14.43;8.52;;;;;;;5.25;55.85;102222.41;2089513;28;20042;-70
2022/04/18 01:40:22;;;;;;;15.43;8.43;;;;;;;5.21;56.44;102227.66;2080006;28;20660;-70
2022/04/18 01:41:26;;;;;;;16.50;8.85;;;;;;;5.22;56.89;102219.69;2080421;28;20602;-70
2022/04/18 01:42:28;;;;;;;13.32;7.95;;;;;;;5.15;57.00;102217.78;2080803;28;20042;-70
2022/04/18 01:43:30;;;;;;;15.80;8.65;;;;;;;5.13;56.36;102224.81;2087604;28;44580;-70
2022/04/18 01:44:34;;;;;;;16.80;9.75;;;;;;;5.13;55.81;102222.19;2081460;28;20034;-70
2022/04/18 01:45:36;;;;;;;16.83;9.00;;;;;;;5.12;56.04;102223.94;2081571;28;20030;-69
2022/04/18 01:46:47;;;;;;;17.10;8.82;;;;;;;5.08;56.13;102227.41;2081562;28;20046;-70
2022/04/18 01:47:51;;;;;;;19.58;9.30;;;;;;;5.22;57.03;102219.69;2088878;28;20034;-70
2022/04/18 01:48:53;;;;;;;17.85;9.07;;;;;;;5.27;56.15;102220.69;2087776;28;20834;-70
2022/04/18 01:49:55;;;;;;;17.13;8.98;;;;;;;5.20;56.57;102224.09;2080936;28;20201;-70
2022/04/18 01:50:56;;;;;;;14.18;8.02;;;;;;;5.12;56.81;102218.63;2088419;28;20073;-70
2022/04/18 01:52:00;;;;;;;15.27;8.75;;;;;;;5.11;56.31;102215.94;2080603;28;20046;-70
2022/04/18 01:53:03;;;;;;;16.45;9.35;;;;;;;5.12;57.47;102223.06;2071944;28;21133;-70
2022/04/18 01:54:05;;;;;;;15.73;8.73;;;;;;;5.08;57.11;102221.19;2072389;28;37596;-70
2022/04/18 01:55:08;;;;;;;15.40;8.55;;;;;;;5.01;56.46;102225.50;2072735;28;20046;-70
2022/04/18 01:56:10;;;;;;;15.70;9.20;;;;;;;5.05;56.77;102221.16;2072645;28;20057;-70
2022/04/18 01:57:14;;;;;;;15.18;9.00;;;;;;;5.11;57.01;102219.47;2080514;28;20042;-70
2022/04/18 01:58:16;;;;;;;16.35;8.43;;;;;;;5.09;56.25;102220.34;2080319;28;20847;-70
2022/04/18 01:59:18;;;;;;;17.63;8.52;;;;;;;5.05;56.65;102221.16;2072107;28;20034;-70
2022/04/18 02:00:20;;;;;;;15.38;8.85;;;;;;;5.02;56.72;102229.03;2071910;28;36424;-70
2022/04/18 02:01:22;;;;;;;13.63;8.77;;;;;;;5.03;57.06;102223.75;2071482;28;20046;-70
2022/04/18 02:02:23;;;;;;;15.82;8.73;;;;;;;5.00;56.82;102230.75;2072143;28;20853;-73
2022/04/18 02:03:25;;;;;;;14.43;8.07;;;;;;;4.93;57.30;102221.78;2071708;28;20050;-70
2022/04/18 02:04:27;;;;;;;13.57;8.32;;;;;;;4.89;57.80;102225.22;2080152;28;43530;-70
2022/04/18 02:05:32;;;;;;;16.55;8.48;;;;;;;4.83;56.86;102217.13;2072064;28;20108;-70
2022/04/18 02:06:35;;;;;;;18.00;9.25;;;;;;;4.90;58.35;102219.97;2073251;28;20536;-70
2022/04/18 02:07:38;;;;;;;16.85;9.15;;;;;;;4.88;56.96;102219.03;2071905;28;20085;-69
2022/04/18 02:08:41;;;;;;;18.83;9.60;;;;;;;4.90;57.21;102219.03;2080262;28;20068;-70
2022/04/18 02:09:45;;;;;;;15.65;9.38;;;;;;;4.79;58.23;102210.84;2080364;28;20898;-70
2022/04/18 02:10:48;;;;;;;20.05;9.55;;;;;;;4.82;58.43;102210.94;2080406;28;20176;-70
2022/04/18 02:11:59;;;;;;;14.60;8.35;;;;;;;4.82;58.19;102218.00;2072301;28;20974;-69
2022/04/18 02:13:09;;;;;;;15.90;8.35;;;;;;;4.77;58.39;102216.16;2067463;28;20047;-70
2022/04/18 02:14:10;;;;;;;14.77;7.97;;;;;;;4.79;58.09;102216.16;2080273;28;20049;-70
2022/04/18 02:15:15;;;;;;;15.77;8.60;;;;;;;4.71;58.29;102213.34;2080421;28;20061;-72
2022/04/18 02:16:28;;;;;;;13.88;8.43;;;;;;;4.71;58.12;102204.50;2071598;28;20140;-70
2022/04/18 02:17:30;;;;;;;15.60;8.70;;;;;;;4.68;58.69;102205.31;2073914;28;20039;-70
2022/04/18 02:18:32;;;;;;;14.93;8.30;;;;;;;4.67;59.20;102206.19;2087974;28;20159;-70
2022/04/18 02:19:34;;;;;;;15.85;8.15;;;;;;;4.68;58.24;102204.44;2071774;28;20180;-70
2022/04/18 02:20:38;;;;;;;15.90;8.82;;;;;;;4.66;58.88;102206.16;2062866;28;45210;-70
2022/04/18 02:21:39;;;;;;;14.30;8.40;;;;;;;4.65;58.94;102209.66;2063390;28;38079;-71
2022/04/18 02:22:41;;;;;;;15.15;8.57;;;;;;;4.63;58.97;102201.69;2071272;28;36826;-70
2022/04/18 02:23:43;;;;;;;14.25;8.15;;;;;;;4.59;58.53;102200.72;2079491;28;39036;-70
2022/04/18 02:24:45;;;;;;;14.75;7.50;;;;;;;4.53;58.88;102202.34;2078946;28;46475;-70
2022/04/18 02:25:46;;;;;;;16.88;8.88;;;;;;;4.55;59.74;102204.16;2079655;28;20146;-70
2022/04/18 02:26:50;;;;;;;14.95;8.00;;;;;;;4.58;59.68;102208.66;2071709;28;20050;-70
2022/04/18 02:27:52;;;;;;;14.38;8.48;;;;;;;4.55;59.84;102203.28;2071930;28;20260;-70
2022/04/18 02:28:53;;;;;;;14.23;7.97;;;;;;;4.51;59.47;102202.31;2079184;28;30733;-70
2022/04/18 02:29:55;;;;;;;15.20;8.15;;;;;;;4.48;59.17;102201.34;2063693;28;20860;-70
2022/04/18 02:31:00;;;;;;;12.98;7.30;;;;;;;4.41;59.14;102200.28;2071147;28;33879;-70
2022/04/18 02:33:24;;;;;;;16.85;8.65;;;;;;;4.33;59.67;102196.59;2074707;28;33696;-70
2022/04/18 02:34:28;;;;;;;14.18;7.25;;;;;;;4.31;60.29;102193.91;2076459;28;20144;-70
2022/04/18 02:35:31;;;;;;;15.18;8.38;;;;;;;4.29;60.56;102194.72;2072263;28;20410;-70
2022/04/18 02:36:33;;;;;;;13.20;7.57;;;;;;;4.25;60.85;102192.84;2071789;28;20050;-70
2022/04/18 02:37:36;;;;;;;15.82;8.07;;;;;;;4.22;60.94;102188.41;2071343;28;20112;-70
2022/04/18 02:38:38;;;;;;;15.35;8.40;;;;;;;4.22;60.95;102193.69;2071238;28;20054;-70
2022/04/18 02:39:41;;;;;;;12.90;7.97;;;;;;;4.24;60.71;102191.97;2071675;28;20042;-70
2022/04/18 02:40:44;;;;;;;15.57;8.55;;;;;;;4.17;60.88;102190.03;2079518;28;20100;-70
2022/04/18 02:41:46;;;;;;;12.77;7.80;;;;;;;4.22;61.56;102191.03;2088186;28;20247;-70
2022/04/18 02:42:48;;;;;;;17.60;8.80;;;;;;;4.39;60.85;102180.81;2071848;28;20112;-70
2022/04/18 02:43:50;;;;;;;14.90;8.38;;;;;;;4.32;60.86;102184.19;2072000;28;20689;-70
2022/04/18 02:44:52;;;;;;;16.42;8.90;;;;;;;4.34;60.58;102185.09;2071901;28;20041;-69
2022/04/18 02:46:11;;;;;;;14.63;8.13;;;;;;;4.37;60.75;102182.53;2071921;28;20213;-72
2022/04/18 02:47:19;;;;;;;14.93;8.02;;;;;;;4.35;60.26;102181.63;2076820;28;20049;-72
2022/04/18 02:48:25;;;;;;;16.75;8.63;;;;;;;4.33;60.79;102186.00;2080159;28;20161;-71
2022/04/18 02:49:31;;;;;;;13.02;7.97;;;;;;;4.45;60.45;102175.66;2079172;28;20084;-72
2022/04/18 02:50:34;;;;;;;14.38;7.97;;;;;;;4.39;60.36;102183.47;2080202;28;20034;-72
2022/04/18 02:51:36;;;;;;;13.48;7.88;;;;;;;4.36;60.49;102172.78;2072006;28;20870;-71
2022/04/18 02:52:42;;;;;;;13.48;8.15;;;;;;;4.36;61.04;102172.78;2079973;28;20050;-70
2022/04/18 02:53:46;;;;;;;14.38;7.97;;;;;;;4.32;60.75;102185.06;2079842;28;20169;-70
2022/04/18 02:54:47;;;;;;;13.52;7.97;;;;;;;4.34;60.04;102180.72;2080378;28;20037;-70
2022/04/18 02:55:50;;;;;;;15.65;8.48;;;;;;;4.29;60.94;102170.84;2079872;28;29186;-71
2022/04/18 02:56:52;;;;;;;13.23;7.88;;;;;;;4.27;60.46;102175.22;2079934;28;20041;-70
2022/04/18 02:57:54;;;;;;;13.57;7.60;;;;;;;4.19;60.69;102170.66;2079230;28;42590;-70
2022/04/18 02:58:57;;;;;;;11.85;7.50;;;;;;;4.15;60.89;102173.22;2080010;28;20034;-70
2022/04/18 02:59:59;;;;;;;15.50;8.70;;;;;;;4.10;61.00;102161.59;2079694;28;20030;-70
2022/04/18 03:01:01;;;;;;;14.52;7.80;;;;;;;4.04;60.57;102165.00;2079971;28;20180;-70
2022/04/18 03:02:05;;;;;;;16.35;8.68;;;;;;;4.00;61.03;102165.75;2079826;28;20125;-71
2022/04/18 03:03:08;;;;;;;11.88;7.60;;;;;;;3.92;61.19;102165.59;2080535;28;20140;-70
2022/04/18 03:04:11;;;;;;;15.10;8.48;;;;;;;3.86;61.44;102168.09;2077181;28;20088;-72
2022/04/18 03:05:13;;;;;;;14.77;8.05;;;;;;;3.80;61.34;102165.28;2071069;28;38257;-72
2022/04/18 03:06:14;;;;;;;14.07;7.07;;;;;;;3.71;62.00;102173.91;2072977;28;20042;-70
2022/04/18 03:07:16;;;;;;;11.43;7.10;;;;;;;3.65;61.70;102170.22;2071137;28;37512;-72
2022/04/18 03:08:18;;;;;;;12.73;7.55;;;;;;;3.63;63.05;102172.81;2063334;28;20098;-70
2022/04/18 03:09:20;;;;;;;12.85;7.72;;;;;;;3.63;62.71;102170.19;2072396;28;21053;-69
2022/04/18 03:11:02;;;;;;;11.98;7.30;;;;;;;3.60;62.29;102164.78;2078825;28;45766;-70
2022/04/18 03:11:45;;;;;;;13.77;8.07;;;;;;;3.53;62.85;102162.84;2072496;28;20264;-70
2022/04/18 03:12:47;;;;;;;16.73;8.57;;;;;;;3.52;63.42;102163.72;2071553;28;20805;-70
2022/04/18 03:13:48;;;;;;;12.05;7.13;;;;;;;3.48;63.01;102159.19;2071142;28;33875;-71
2022/04/18 03:15:08;;;;;;;12.98;7.53;;;;;;;3.39;63.25;102166.03;2071626;28;20054;-70
2022/04/18 03:16:12;;;;;;;11.15;6.22;;;;;;;3.38;64.05;102158.94;2063729;28;20047;-71
2022/04/18 03:17:13;;;;;;;13.88;7.80;;;;;;;3.40;64.47;102166.94;2071679;28;32563;-70
2022/04/18 03:18:15;;;;;;;13.55;7.75;;;;;;;3.34;63.77;102161.44;2080097;28;20050;-70
2022/04/18 03:19:17;;;;;;;11.95;7.20;;;;;;;3.31;64.99;102170.22;2071310;28;20078;-70
2022/04/18 03:20:30;;;;;;;14.68;8.23;;;;;;;3.30;64.59;102163.13;2071811;28;20050;-70
2022/04/18 03:21:31;;;;;;;12.00;7.30;;;;;;;3.28;64.37;102167.47;2079128;28;32831;-70
2022/04/18 03:22:38;;;;;;;18.08;8.15;;;;;;;3.28;64.86;102164.84;2079266;28;20912;-70
2022/04/18 03:23:45;;;;;;;15.60;8.90;;;;;;;3.35;65.82;102165.91;2071632;28;20823;-70
2022/04/18 03:24:55;;;;;;;12.98;7.68;;;;;;;3.32;65.10;102157.88;2072873;28;20046;-72
2022/04/18 03:25:58;;;;;;;13.02;8.52;;;;;;;3.30;65.61;102164.88;2080115;28;20965;-71
2022/04/18 03:27:07;;;;;;;13.37;7.93;;;;;;;3.31;65.54;102157.00;2079686;28;20100;-72
2022/04/18 03:28:11;;;;;;;14.18;8.98;;;;;;;3.29;65.70;102155.16;2079846;28;20257;-72
2022/04/18 03:29:13;;;;;;;15.18;8.38;;;;;;;3.27;65.59;102159.50;2079555;28;20806;-72
2022/04/18 03:30:16;;;;;;;12.40;7.13;;;;;;;3.23;65.27;102158.53;2079728;28;20050;-70
2022/04/18 03:31:22;;;;;;;14.80;7.05;;;;;;;3.19;64.96;102161.94;2064503;28;20164;-70
2022/04/18 03:32:23;;;;;;;12.27;7.00;;;;;;;3.22;65.58;102160.28;2071734;28;20133;-72
2022/04/18 03:33:25;;;;;;;13.82;7.88;;;;;;;3.25;65.31;102151.53;2079641;28;20871;-70
2022/04/18 03:34:27;;;;;;;16.10;8.98;;;;;;;3.20;65.06;102155.81;2075435;28;28153;-71
2022/04/18 03:35:30;;;;;;;14.45;7.90;;;;;;;3.19;65.50;102156.66;2079640;28;20049;-71
2022/04/18 03:40:36;;;;;;;14.25;8.15;;;;;;;3.09;65.57;102149.31;2079617;28;20279;-70
2022/04/18 03:41:38;;;;;;;13.02;7.22;;;;;;;3.09;66.47;102154.59;2071720;28;20039;-70
2022/04/18 03:42:39;;;;;;;10.63;7.43;;;;;;;3.08;66.56;102150.19;2071139;28;44183;-70
2022/04/18 03:43:45;;;;;;;13.98;7.68;;;;;;;3.08;65.92;102158.13;2079596;28;20863;-70
2022/04/18 03:44:48;;;;;;;16.75;9.02;;;;;;;3.19;66.37;102154.00;2079347;28;20985;-70
2022/04/18 03:45:51;;;;;;;16.17;8.88;;;;;;;3.18;66.30;102158.41;2071750;28;20053;-70
2022/04/18 03:46:56;;;;;;;16.13;8.68;;;;;;;3.23;66.15;102145.28;2079716;28;20275;-70
2022/04/18 03:47:59;;;;;;;13.10;7.78;;;;;;;3.19;65.43;102151.38;2079616;28;20271;-70
2022/04/18 03:49:00;;;;;;;14.77;8.82;;;;;;;3.17;65.29;102148.66;2079925;28;20042;-71
2022/04/18 03:50:03;;;;;;;16.50;8.32;;;;;;;3.17;65.76;102151.31;2079109;28;20822;-70
2022/04/18 03:51:08;;;;;;;13.63;8.10;;;;;;;3.15;65.90;102149.50;2079361;28;21043;-70
2022/04/18 03:52:10;;;;;;;15.05;8.00;;;;;;;3.19;66.39;102154.00;2079461;28;20046;-71
2022/04/18 03:53:13;;;;;;;15.05;9.10;;;;;;;3.19;66.19;102156.66;2055222;28;20086;-70
2022/04/18 03:54:17;;;;;;;14.63;8.63;;;;;;;3.24;66.39;102163.84;2056407;28;20151;-71
2022/04/18 03:55:18;;;;;;;16.02;8.63;;;;;;;3.28;66.03;102156.91;2070716;28;46286;-70
2022/04/18 03:56:20;;;;;;;14.68;9.30;;;;;;;3.30;66.28;102151.66;2071798;28;20880;-70
2022/04/18 03:57:40;;;;;;;16.52;8.30;;;;;;;3.31;66.09;102156.09;2071874;28;20051;-70
2022/04/18 03:58:43;;;;;;;15.85;8.85;;;;;;;3.39;66.90;102147.50;2079452;28;20173;-70
2022/04/18 03:59:47;;;;;;;17.38;9.30;;;;;;;3.53;65.61;102153.13;2079452;28;20038;-70
2022/04/18 04:00:49;;;;;;;15.52;8.45;;;;;;;3.49;65.72;102150.38;2079298;28;22006;-70
2022/04/18 04:01:52;;;;;;;14.60;9.32;;;;;;;3.55;65.29;102150.53;2079122;28;20168;-70
2022/04/18 04:02:54;;;;;;;16.52;9.00;;;;;;;3.57;65.53;102154.13;2070907;28;20899;-73
2022/04/18 04:04:03;;;;;;;15.77;8.55;;;;;;;3.72;64.36;102145.69;2072253;28;20058;-71
2022/04/18 04:05:05;;;;;;;16.10;9.45;;;;;;;3.75;64.31;102151.94;2079126;28;20053;-71
2022/04/18 04:06:08;;;;;;;15.85;8.95;;;;;;;3.78;64.65;102143.16;2071198;28;20967;-71
2022/04/18 04:07:11;;;;;;;17.80;8.50;;;;;;;3.92;64.32;102141.75;2063420;28;21021;-70
2022/04/18 04:08:13;;;;;;;16.85;8.70;;;;;;;3.86;64.13;102138.03;2071358;28;20982;-71
2022/04/18 04:09:14;;;;;;;16.35;8.63;;;;;;;3.92;64.23;102139.09;2078737;28;45540;-71
2022/04/18 04:10:16;;;;;;;13.75;8.50;;;;;;;4.09;63.76;102141.25;2070492;28;41363;-70
2022/04/18 04:11:18;;;;;;;16.48;8.60;;;;;;;4.14;63.67;102137.81;2071495;28;20054;-71
2022/04/18 04:12:24;;;;;;;15.63;8.65;;;;;;;4.15;63.86;102139.63;2072103;28;20088;-71
2022/04/18 04:13:45;;;;;;;10.95;7.38;;;;;;;4.15;63.06;102133.44;2071728;28;20974;-70
2022/04/18 04:14:54;;;;;;;16.10;8.65;;;;;;;4.08;63.38;102140.34;2063657;28;20051;-70
2022/04/18 04:16:04;;;;;;;16.92;7.53;;;;;;;4.00;64.14;102137.53;2072378;28;20054;-70
2022/04/18 04:17:06;;;;;;;16.17;8.68;;;;;;;3.98;63.55;102141.00;2071060;28;26444;-71
2022/04/18 04:18:10;;;;;;;14.27;8.05;;;;;;;3.92;63.53;102141.75;2070553;28;39443;-70
2022/04/18 04:19:12;;;;;;;14.70;7.80;;;;;;;3.97;64.36;102133.91;2071172;28;20046;-71
2022/04/18 04:20:14;;;;;;;13.65;7.70;;;;;;;3.98;64.16;102138.34;2070783;28;20051;-70
2022/04/18 04:21:16;;;;;;;12.13;7.45;;;;;;;3.94;64.03;102134.72;2071311;28;20132;-70
2022/04/18 04:22:18;;;;;;;12.35;8.02;;;;;;;3.95;64.32;102136.53;2070889;28;20035;-71
2022/04/18 04:23:25;;;;;;;14.02;7.90;;;;;;;3.97;63.86;102139.22;2071270;28;20086;-71
2022/04/18 04:25:06;;;;;;;;;;;;;;;3.93;63.82;102134.69;2076569;28;20049;-71
2022/04/18 04:26:08;;;;;;;14.40;8.02;;;;;;;3.98;64.65;102125.09;2070843;28;19934;-71
2022/04/18 04:27:20;;;;;;;14.02;8.10;;;;;;;3.88;64.08;102125.75;2072182;28;20287;-71
2022/04/18 04:28:21;;;;;;;14.10;8.13;;;;;;;3.86;64.31;102119.50;2071152;28;20120;-70
2022/04/18 04:29:23;;;;;;;14.32;8.13;;;;;;;3.87;65.09;102126.59;2062558;28;21628;-71
2022/04/18 04:30:45;;;;;;;10.80;7.30;;;;;;;3.83;64.56;102123.88;2071661;28;20133;-72
2022/04/18 04:31:47;;;;;;;12.55;7.63;;;;;;;3.83;64.57;102121.22;2071108;28;42709;-71
2022/04/18 04:32:50;;;;;;;16.77;8.48;;;;;;;3.85;64.60;102123.91;2071054;28;20092;-71
2022/04/18 04:33:54;;;;;;;14.45;7.68;;;;;;;3.89;64.65;102130.19;2071485;28;20034;-73
2022/04/18 04:34:56;;;;;;;13.00;7.57;;;;;;;3.87;64.41;102131.91;2079158;28;20164;-70
2022/04/18 04:36:15;;;;;;;12.63;7.50;;;;;;;3.90;64.45;102131.97;2081372;28;20050;-70
2022/04/18 04:37:18;;;;;;;14.10;8.32;;;;;;;3.98;64.88;102120.72;2084833;28;20152;-70
2022/04/18 04:38:24;;;;;;;12.05;8.07;;;;;;;4.19;64.07;102124.69;2079396;28;20053;-71
2022/04/18 04:39:28;;;;;;;13.25;8.07;;;;;;;4.47;63.59;102123.56;2070846;28;20169;-71
2022/04/18 04:40:31;;;;;;;14.07;8.23;;;;;;;4.72;61.99;102116.06;2063843;28;20175;-70
2022/04/18 04:41:33;;;;;;;14.80;8.18;;;;;;;5.05;60.81;102114.97;2063078;28;20085;-70
2022/04/18 04:42:36;;;;;;;13.50;8.05;;;;;;;5.43;60.79;102123.59;2071575;28;20127;-71
2022/04/18 04:43:40;;;;;;;13.90;8.38;;;;;;;5.58;59.14;102109.72;2079331;28;20049;-71
2022/04/18 04:44:46;;;;;;;16.70;8.10;;;;;;;5.95;58.20;102107.63;2079255;28;20981;-71
2022/04/18 04:46:00;;;;;;;12.77;7.35;;;;;;;6.40;57.50;102108.28;2071989;28;20967;-71
2022/04/18 04:47:04;;;;;;;15.52;8.35;;;;;;;6.67;56.34;102107.72;2063986;28;20051;-71
2022/04/18 04:48:07;;;;;;;14.02;8.25;;;;;;;6.97;55.44;102106.31;2064129;28;20430;-70
2022/04/18 04:49:16;;;;;;;12.77;7.72;;;;;;;7.26;53.56;102101.25;2080114;28;20127;-70
2022/04/18 04:50:32;;;;;;;13.30;7.95;;;;;;;7.65;52.80;102103.38;2085138;28;20878;-70
2022/04/18 04:51:34;;;;;;;13.77;8.15;;;;;;;7.65;52.14;102097.16;2079672;28;20150;-70
2022/04/18 04:52:36;;;;;;;14.02;7.85;;;;;;;8.10;51.51;102097.47;2087366;28;20048;-70
2022/04/18 04:53:37;;;;;;;14.35;8.50;;;;;;;8.31;50.81;102100.25;2079361;28;20135;-70
2022/04/18 04:54:39;;;;;;;16.45;8.70;;;;;;;8.23;51.35;102097.53;2079117;28;20717;-70
2022/04/18 04:55:45;;;;;;;16.38;8.38;;;;;;;8.59;49.51;102095.94;2079581;28;20042;-70
2022/04/18 04:56:49;;;;;;;13.77;8.40;;;;;;;8.83;49.06;102102.28;2071246;28;20043;-70
2022/04/18 04:57:55;;;;;;;12.73;8.60;;;;;;;8.78;49.41;102094.25;2062970;28;20047;-70
2022/04/18 04:59:19;;;;;;;15.32;7.82;;;;;;;9.17;47.29;102092.56;2074029;28;20080;-72
2022/04/18 05:00:21;;;;;;;11.95;7.53;;;;;;;9.43;47.41;102093.47;2079172;28;20118;-69
2022/04/18 05:01:54;;;;;;;14.95;8.13;;;;;;;9.10;47.37;102096.13;2070356;28;20207;-68
2022/04/18 05:02:58;;;;;;;12.60;8.23;;;;;;;9.44;47.02;102103.25;2079123;28;20170;-70
2022/04/18 05:04:01;;;;;;;12.23;7.78;;;;;;;9.89;46.25;102096.13;2071256;28;20047;-70
2022/04/18 05:05:04;;;;;;;12.20;7.85;;;;;;;9.08;46.77;102092.56;2070616;28;20050;-69
2022/04/18 05:06:07;;;;;;;12.35;7.10;;;;;;;9.65;45.98;102105.06;2079538;28;20826;-70
2022/04/18 05:07:14;;;;;;;13.68;8.15;;;;;;;9.78;46.57;102090.78;2078983;28;20076;-70
2022/04/18 05:08:41;;;;;;;13.35;7.75;;;;;;;9.97;46.08;102097.00;2079008;28;20045;-70
2022/04/18 05:09:43;;;;;;;11.60;7.82;;;;;;;10.47;44.63;102095.09;2063100;28;20109;-70
2022/04/18 05:10:45;;;;;;;12.50;8.18;;;;;;;10.31;43.74;102097.81;2062962;28;20972;-70
2022/04/18 05:11:55;;;;;;;11.55;7.38;;;;;;;11.24;43.16;102089.31;2073185;28;20050;-70